sensor_id;sensor_type;location;lat;lon;timestamp;pressure;altitude;pressure_sealevel;temperature;humidity
42067;BME280;27734;47.028;28.820;2022-07-23T00:00:33;100558.30;;;21.23;48.23
42067;BME280;27734;47.028;28.820;2022-07-23T00:03:08;100555.70;;;21.12;48.39
42067;BME280;27734;47.028;28.820;2022-07-23T00:05:43;100556.69;;;21.00;48.29
42067;BME280;27734;47.028;28.820;2022-07-23T00:08:19;100552.28;;;20.92;48.73
42067;BME280;27734;47.028;28.820;2022-07-23T00:10:51;100561.20;;;20.85;48.89
42067;BME280;27734;47.028;28.820;2022-07-23T00:13:26;100558.58;;;20.75;50.33
42067;BME280;27734;47.028;28.820;2022-07-23T00:19:00;100570.20;;;20.59;51.17
42067;BME280;27734;47.028;28.820;2022-07-23T00:21:42;100563.12;;;20.50;50.62
42067;BME280;27734;47.028;28.820;2022-07-23T00:24:16;100559.59;;;20.43;50.86
42067;BME280;27734;47.028;28.820;2022-07-23T00:26:52;100559.63;;;20.37;50.90
42067;BME280;27734;47.028;28.820;2022-07-23T00:29:40;100550.77;;;20.32;50.78
42067;BME280;27734;47.028;28.820;2022-07-23T00:32:12;100557.87;;;20.27;50.93
42067;BME280;27734;47.028;28.820;2022-07-23T00:34:45;100551.65;;;20.31;51.39
42067;BME280;27734;47.028;28.820;2022-07-23T00:37:25;100559.63;;;20.36;50.99
42067;BME280;27734;47.028;28.820;2022-07-23T00:39:59;100558.73;;;20.38;50.81
42067;BME280;27734;47.028;28.820;2022-07-23T00:42:37;100552.50;;;20.39;51.19
42067;BME280;27734;47.028;28.820;2022-07-23T00:45:13;100556.96;;;20.36;50.96
42067;BME280;27734;47.028;28.820;2022-07-23T00:47:53;100551.65;;;20.31;50.34
42067;BME280;27734;47.028;28.820;2022-07-23T00:50:33;100551.67;;;20.23;51.38
42067;BME280;27734;47.028;28.820;2022-07-23T00:53:07;100553.47;;;20.20;51.60
42067;BME280;27734;47.028;28.820;2022-07-23T00:55:43;100550.81;;;20.17;51.20
42067;BME280;27734;47.028;28.820;2022-07-23T00:58:18;100557.03;;;20.14;51.78
42067;BME280;27734;47.028;28.820;2022-07-23T01:00:52;100557.03;;;20.13;51.14
42067;BME280;27734;47.028;28.820;2022-07-23T01:03:25;100562.37;;;20.06;51.72
42067;BME280;27734;47.028;28.820;2022-07-23T01:06:01;100556.18;;;20.01;51.64
42067;BME280;27734;47.028;28.820;2022-07-23T01:08:34;100558.85;;;19.95;51.94
42067;BME280;27734;47.028;28.820;2022-07-23T01:11:09;100554.41;;;19.94;51.72
42067;BME280;27734;47.028;28.820;2022-07-23T01:13:49;100558.86;;;19.90;52.46
42067;BME280;27734;47.028;28.820;2022-07-23T01:16:24;100560.64;;;19.90;52.87
42067;BME280;27734;47.028;28.820;2022-07-23T01:18:56;100551.75;;;19.89;52.71
42067;BME280;27734;47.028;28.820;2022-07-23T01:21:33;100562.40;;;19.91;52.62
42067;BME280;27734;47.028;28.820;2022-07-23T01:24:08;100553.53;;;19.92;53.10
42067;BME280;27734;47.028;28.820;2022-07-23T01:26:44;100570.38;;;19.94;52.32
42067;BME280;27734;47.028;28.820;2022-07-23T01:29:14;100568.64;;;19.90;52.45
42067;BME280;27734;47.028;28.820;2022-07-23T01:31:49;100563.31;;;19.87;52.46
42067;BME280;27734;47.028;28.820;2022-07-23T01:34:29;100558.87;;;19.86;53.13
42067;BME280;27734;47.028;28.820;2022-07-23T01:37:00;100566.86;;;19.86;52.77
42067;BME280;27734;47.028;28.820;2022-07-23T01:39:37;100559.75;;;19.82;52.84
42067;BME280;27734;47.028;28.820;2022-07-23T01:42:12;100564.20;;;19.77;53.36
42067;BME280;27734;47.028;28.820;2022-07-23T01:44:47;100573.95;;;19.71;52.79
42067;BME280;27734;47.028;28.820;2022-07-23T01:47:24;100559.73;;;19.68;53.89
42067;BME280;27734;47.028;28.820;2022-07-23T01:50:02;100571.28;;;19.67;53.14
42067;BME280;27734;47.028;28.820;2022-07-23T01:52:57;100566.84;;;19.64;53.18
42067;BME280;27734;47.028;28.820;2022-07-23T01:55:28;100572.16;;;19.58;53.42
42067;BME280;27734;47.028;28.820;2022-07-23T01:58:08;100565.05;;;19.57;54.02
42067;BME280;27734;47.028;28.820;2022-07-23T02:00:40;100567.72;;;19.62;53.69
42067;BME280;27734;47.028;28.820;2022-07-23T02:03:12;100573.95;;;19.62;53.90
42067;BME280;27734;47.028;28.820;2022-07-23T02:05:43;100569.50;;;19.55;53.88
42067;BME280;27734;47.028;28.820;2022-07-23T02:08:15;100568.63;;;19.47;54.18
42067;BME280;27734;47.028;28.820;2022-07-23T02:11:00;100570.40;;;19.37;54.68
42067;BME280;27734;47.028;28.820;2022-07-23T02:13:36;100571.27;;;19.34;54.56
42067;BME280;27734;47.028;28.820;2022-07-23T02:16:15;100574.81;;;19.33;54.58
42067;BME280;27734;47.028;28.820;2022-07-23T02:18:55;100581.04;;;19.32;54.58
42067;BME280;27734;47.028;28.820;2022-07-23T02:21:28;100569.48;;;19.30;54.96
42067;BME280;27734;47.028;28.820;2022-07-23T02:24:02;100589.89;;;19.31;54.66
42067;BME280;27734;47.028;28.820;2022-07-23T02:26:41;100585.45;;;19.32;55.35
42067;BME280;27734;47.028;28.820;2022-07-23T02:29:23;100585.45;;;19.29;54.89
42067;BME280;27734;47.028;28.820;2022-07-23T02:31:57;100579.23;;;19.22;54.96
42067;BME280;27734;47.028;28.820;2022-07-23T02:34:29;100585.42;;;19.19;55.10
42067;BME280;27734;47.028;28.820;2022-07-23T02:37:00;100588.98;;;19.15;55.76
42067;BME280;27734;47.028;28.820;2022-07-23T02:39:32;100586.33;;;19.14;55.69
42067;BME280;27734;47.028;28.820;2022-07-23T02:42:06;100585.41;;;19.12;55.09
42067;BME280;27734;47.028;28.820;2022-07-23T02:44:43;100588.98;;;19.11;55.06
42067;BME280;27734;47.028;28.820;2022-07-23T02:47:21;100592.52;;;19.11;55.17
42067;BME280;27734;47.028;28.820;2022-07-23T02:50:19;100594.29;;;19.08;55.13
42067;BME280;27734;47.028;28.820;2022-07-23T02:52:55;100600.47;;;19.03;55.02
42067;BME280;27734;47.028;28.820;2022-07-23T02:55:35;100593.37;;;19.01;55.50
42067;BME280;27734;47.028;28.820;2022-07-23T02:58:08;100596.92;;;18.95;55.86
42067;BME280;27734;47.028;28.820;2022-07-23T03:00:40;100596.02;;;18.89;55.67
42067;BME280;27734;47.028;28.820;2022-07-23T03:03:11;100603.99;;;18.87;55.75
42067;BME280;27734;47.028;28.820;2022-07-23T03:05:43;100605.73;;;18.85;55.91
42067;BME280;27734;47.028;28.820;2022-07-23T03:08:15;100603.98;;;18.85;56.25
42067;BME280;27734;47.028;28.820;2022-07-23T03:11:02;100606.65;;;18.87;56.52
42067;BME280;27734;47.028;28.820;2022-07-23T03:13:33;100605.74;;;18.88;56.25
42067;BME280;27734;47.028;28.820;2022-07-23T03:16:08;100606.66;;;18.89;56.16
42067;BME280;27734;47.028;28.820;2022-07-23T03:18:42;100601.34;;;18.92;56.64
42067;BME280;27734;47.028;28.820;2022-07-23T03:21:14;100611.99;;;18.95;56.30
42067;BME280;27734;47.028;28.820;2022-07-23T03:23:46;100614.65;;;18.93;56.32
42067;BME280;27734;47.028;28.820;2022-07-23T03:26:18;100615.55;;;19.00;56.41
42067;BME280;27734;47.028;28.820;2022-07-23T03:28:57;100617.30;;;19.04;56.82
42067;BME280;27734;47.028;28.820;2022-07-23T03:31:38;100614.63;;;18.99;56.81
42067;BME280;27734;47.028;28.820;2022-07-23T03:34:14;100621.72;;;18.94;56.82
42067;BME280;27734;47.028;28.820;2022-07-23T03:36:48;100618.17;;;18.92;56.51
42067;BME280;27734;47.028;28.820;2022-07-23T03:39:31;100616.41;;;18.97;56.87
42067;BME280;27734;47.028;28.820;2022-07-23T03:42:05;100620.88;;;19.04;56.55
42067;BME280;27734;47.028;28.820;2022-07-23T03:44:37;100622.64;;;19.10;56.37
42067;BME280;27734;47.028;28.820;2022-07-23T03:47:26;100623.56;;;19.12;56.46
42067;BME280;27734;47.028;28.820;2022-07-23T03:50:06;100624.44;;;19.16;56.68
42067;BME280;27734;47.028;28.820;2022-07-23T03:52:38;100620.00;;;19.15;56.79
42067;BME280;27734;47.028;28.820;2022-07-23T03:55:21;100621.78;;;19.16;56.79
42067;BME280;27734;47.028;28.820;2022-07-23T03:58:02;100616.47;;;19.20;56.91
42067;BME280;27734;47.028;28.820;2022-07-23T04:00:46;100619.14;;;19.25;56.59
42067;BME280;27734;47.028;28.820;2022-07-23T04:03:25;100618.27;;;19.26;57.04
42067;BME280;27734;47.028;28.820;2022-07-23T04:06:07;100616.50;;;19.33;57.06
42067;BME280;27734;47.028;28.820;2022-07-23T04:08:42;100605.86;;;19.37;56.82
42067;BME280;27734;47.028;28.820;2022-07-23T04:11:14;100615.64;;;19.45;57.06
42067;BME280;27734;47.028;28.820;2022-07-23T04:13:52;100613.87;;;19.53;57.13
42067;BME280;27734;47.028;28.820;2022-07-23T04:16:24;100610.30;;;19.62;57.06
42067;BME280;27734;47.028;28.820;2022-07-23T04:22:02;100615.66;;;19.77;57.26
42067;BME280;27734;47.028;28.820;2022-07-23T04:24:41;100613.91;;;19.79;56.76
42067;BME280;27734;47.028;28.820;2022-07-23T04:27:31;100614.78;;;19.81;56.98
42067;BME280;27734;47.028;28.820;2022-07-23T04:30:14;100617.45;;;19.86;56.33
42067;BME280;27734;47.028;28.820;2022-07-23T04:32:49;100614.78;;;19.89;56.95
42067;BME280;27734;47.028;28.820;2022-07-23T04:35:29;100615.66;;;19.89;56.79
42067;BME280;27734;47.028;28.820;2022-07-23T04:41:25;100608.58;;;19.98;56.67
42067;BME280;27734;47.028;28.820;2022-07-23T04:44:10;100607.66;;;20.05;56.56
42067;BME280;27734;47.028;28.820;2022-07-23T04:46:45;100612.97;;;20.13;55.91
42067;BME280;27734;47.028;28.820;2022-07-23T04:49:18;100619.17;;;20.18;56.29
42067;BME280;27734;47.028;28.820;2022-07-23T04:51:55;100616.50;;;20.21;55.35
42067;BME280;27734;47.028;28.820;2022-07-23T04:54:39;100611.16;;;20.25;55.04
42067;BME280;27734;47.028;28.820;2022-07-23T05:00:34;100620.02;;;20.44;55.45
42067;BME280;27734;47.028;28.820;2022-07-23T05:03:26;100624.42;;;20.50;55.01
42067;BME280;27734;47.028;28.820;2022-07-23T05:06:01;100616.41;;;20.55;55.14
42067;BME280;27734;47.028;28.820;2022-07-23T05:08:39;100616.39;;;20.61;54.60
42067;BME280;27734;47.028;28.820;2022-07-23T05:11:18;100619.95;;;20.64;54.59
42067;BME280;27734;47.028;28.820;2022-07-23T05:14:19;100626.17;;;20.73;55.08
42067;BME280;27734;47.028;28.820;2022-07-23T05:17:04;100627.02;;;20.79;54.55
42067;BME280;27734;47.028;28.820;2022-07-23T05:19:47;100624.33;;;20.86;54.35
42067;BME280;27734;47.028;28.820;2022-07-23T05:22:31;100619.84;;;20.91;54.39
42067;BME280;27734;47.028;28.820;2022-07-23T05:25:22;100623.37;;;20.99;53.51
42067;BME280;27734;47.028;28.820;2022-07-23T05:28:08;100627.77;;;21.06;53.75
42067;BME280;27734;47.028;28.820;2022-07-23T05:30:47;100620.59;;;21.16;53.97
42067;BME280;27734;47.028;28.820;2022-07-23T05:33:24;100625.85;;;21.28;54.22
42067;BME280;27734;47.028;28.820;2022-07-23T05:36:10;100625.80;;;21.37;53.90
42067;BME280;27734;47.028;28.820;2022-07-23T05:39:01;100622.19;;;21.46;52.77
42067;BME280;27734;47.028;28.820;2022-07-23T05:41:39;100619.48;;;21.56;53.41
42067;BME280;27734;47.028;28.820;2022-07-23T05:47:44;100616.64;;;21.77;51.99
42067;BME280;27734;47.028;28.820;2022-07-23T05:50:46;100622.77;;;21.88;51.64
42067;BME280;27734;47.028;28.820;2022-07-23T05:53:44;100615.53;;;22.00;52.18
42067;BME280;27734;47.028;28.820;2022-07-23T05:56:36;100626.12;;;22.11;52.03
42067;BME280;27734;47.028;28.820;2022-07-23T05:59:19;100619.80;;;22.21;51.49
42067;BME280;27734;47.028;28.820;2022-07-23T06:02:01;100610.78;;;22.31;51.56
42067;BME280;27734;47.028;28.820;2022-07-23T06:04:43;100616.02;;;22.42;51.88
42067;BME280;27734;47.028;28.820;2022-07-23T06:07:32;100611.45;;;22.53;50.96
42067;BME280;27734;47.028;28.820;2022-07-23T06:10:09;100611.27;;;22.66;50.63
42067;BME280;27734;47.028;28.820;2022-07-23T06:12:41;100608.47;;;22.76;50.63
42067;BME280;27734;47.028;28.820;2022-07-23T06:15:14;100614.61;;;22.86;50.98
42067;BME280;27734;47.028;28.820;2022-07-23T06:18:00;100620.69;;;22.97;50.42
42067;BME280;27734;47.028;28.820;2022-07-23T06:21:06;100612.53;;;23.07;49.98
42067;BME280;27734;47.028;28.820;2022-07-23T06:23:38;100616.80;;;23.22;49.95
42067;BME280;27734;47.028;28.820;2022-07-23T06:26:16;100617.56;;;23.31;49.17
42067;BME280;27734;47.028;28.820;2022-07-23T06:28:49;100612.92;;;23.43;49.53
42067;BME280;27734;47.028;28.820;2022-07-23T06:31:24;100613.63;;;23.54;49.40
42067;BME280;27734;47.028;28.820;2022-07-23T06:33:57;100611.69;;;23.65;48.79
42067;BME280;27734;47.028;28.820;2022-07-23T06:36:30;100610.60;;;23.76;48.88
42067;BME280;27734;47.028;28.820;2022-07-23T06:39:14;100607.75;;;23.88;48.74
42067;BME280;27734;47.028;28.820;2022-07-23T06:41:57;100604.84;;;24.00;48.57
42067;BME280;27734;47.028;28.820;2022-07-23T06:44:40;100603.78;;;24.11;48.12
42067;BME280;27734;47.028;28.820;2022-07-23T06:47:28;100609.78;;;24.23;48.09
42067;BME280;27734;47.028;28.820;2022-07-23T06:50:02;100605.06;;;24.36;47.50
42067;BME280;27734;47.028;28.820;2022-07-23T06:52:45;100611.96;;;24.50;47.11
42067;BME280;27734;47.028;28.820;2022-07-23T06:55:28;100606.32;;;24.65;46.71
42067;BME280;27734;47.028;28.820;2022-07-23T06:58:02;100609.65;;;24.76;46.42
42067;BME280;27734;47.028;28.820;2022-07-23T07:00:35;100603.08;;;24.90;46.22
42067;BME280;27734;47.028;28.820;2022-07-23T07:03:06;100601.91;;;25.03;45.65
42067;BME280;27734;47.028;28.820;2022-07-23T07:05:52;100603.41;;;25.17;45.26
42067;BME280;27734;47.028;28.820;2022-07-23T07:08:26;100605.66;;;25.35;44.33
42067;BME280;27734;47.028;28.820;2022-07-23T07:11:06;100607.00;;;25.55;44.21
42067;BME280;27734;47.028;28.820;2022-07-23T07:14:00;100612.83;;;25.72;43.35
42067;BME280;27734;47.028;28.820;2022-07-23T07:16:48;100606.98;;;25.91;42.90
42067;BME280;27734;47.028;28.820;2022-07-23T07:19:30;100598.50;;;26.08;42.08
42067;BME280;27734;47.028;28.820;2022-07-23T07:22:18;100608.59;;;26.32;42.13
42067;BME280;27734;47.028;28.820;2022-07-23T07:24:50;100605.42;;;26.49;41.85
42067;BME280;27734;47.028;28.820;2022-07-23T07:27:32;100606.81;;;26.63;41.83
42067;BME280;27734;47.028;28.820;2022-07-23T07:30:08;100613.28;;;26.88;41.47
42067;BME280;27734;47.028;28.820;2022-07-23T07:32:45;100609.17;;;27.05;40.55
42067;BME280;27734;47.028;28.820;2022-07-23T07:35:23;100606.81;;;27.24;40.97
42067;BME280;27734;47.028;28.820;2022-07-23T07:37:57;100611.79;;;27.38;40.20
42067;BME280;27734;47.028;28.820;2022-07-23T07:40:51;100609.52;;;27.52;40.15
42067;BME280;27734;47.028;28.820;2022-07-23T07:43:31;100602.72;;;27.67;39.63
42067;BME280;27734;47.028;28.820;2022-07-23T07:46:03;100600.56;;;27.78;39.21
42067;BME280;27734;47.028;28.820;2022-07-23T07:48:43;100608.28;;;27.89;39.07
42067;BME280;27734;47.028;28.820;2022-07-23T07:51:20;100593.34;;;28.06;39.06
42067;BME280;27734;47.028;28.820;2022-07-23T07:53:52;100591.07;;;28.19;37.95
42067;BME280;27734;47.028;28.820;2022-07-23T07:56:24;100596.87;;;28.33;37.80
42067;BME280;27734;47.028;28.820;2022-07-23T07:59:01;100595.52;;;28.45;37.90
42067;BME280;27734;47.028;28.820;2022-07-23T08:01:46;100592.98;;;28.65;37.91
42067;BME280;27734;47.028;28.820;2022-07-23T08:04:18;100595.94;;;28.83;33.45
42067;BME280;27734;47.028;28.820;2022-07-23T08:06:56;100594.55;;;28.95;36.38
42067;BME280;27734;47.028;28.820;2022-07-23T08:09:32;100585.16;;;29.05;36.16
42067;BME280;27734;47.028;28.820;2022-07-23T08:12:05;100574.85;;;29.15;36.13
42067;BME280;27734;47.028;28.820;2022-07-23T08:14:47;100580.48;;;29.32;35.59
42067;BME280;27734;47.028;28.820;2022-07-23T08:17:19;100572.89;;;29.42;35.84
42067;BME280;27734;47.028;28.820;2022-07-23T08:20:01;100578.39;;;29.61;35.18
42067;BME280;27734;47.028;28.820;2022-07-23T08:23:03;100567.80;;;29.77;35.08
42067;BME280;27734;47.028;28.820;2022-07-23T08:25:42;100577.25;;;29.89;34.83
42067;BME280;27734;47.028;28.820;2022-07-23T08:28:28;100569.26;;;30.06;33.29
42067;BME280;27734;47.028;28.820;2022-07-23T08:31:13;100568.09;;;30.12;32.94
42067;BME280;27734;47.028;28.820;2022-07-23T08:33:54;100575.72;;;30.23;32.29
42067;BME280;27734;47.028;28.820;2022-07-23T08:36:43;100571.45;;;30.38;31.62
42067;BME280;27734;47.028;28.820;2022-07-23T08:39:16;100574.78;;;30.44;32.02
42067;BME280;27734;47.028;28.820;2022-07-23T08:41:53;100566.80;;;30.41;31.99
42067;BME280;27734;47.028;28.820;2022-07-23T08:44:29;100564.62;;;30.29;31.53
42067;BME280;27734;47.028;28.820;2022-07-23T08:47:05;100557.27;;;30.33;30.65
42067;BME280;27734;47.028;28.820;2022-07-23T08:49:37;100565.00;;;30.42;30.90
42067;BME280;27734;47.028;28.820;2022-07-23T08:52:22;100555.83;;;30.44;30.91
42067;BME280;27734;47.028;28.820;2022-07-23T08:55:03;100558.11;;;30.54;31.00
42067;BME280;27734;47.028;28.820;2022-07-23T08:57:51;100561.04;;;30.68;30.85
42067;BME280;27734;47.028;28.820;2022-07-23T09:00:32;100559.88;;;30.74;30.88
42067;BME280;27734;47.028;28.820;2022-07-23T09:03:07;100555.87;;;30.82;29.41
42067;BME280;27734;47.028;28.820;2022-07-23T09:05:55;100551.17;;;30.86;29.71
42067;BME280;27734;47.028;28.820;2022-07-23T09:08:37;100545.53;;;30.91;29.00
42067;BME280;27734;47.028;28.820;2022-07-23T09:11:10;100540.64;;;30.99;28.82
42067;BME280;27734;47.028;28.820;2022-07-23T09:13:48;100542.27;;;31.03;29.22
42067;BME280;27734;47.028;28.820;2022-07-23T09:16:23;100546.63;;;30.87;28.38
42067;BME280;27734;47.028;28.820;2022-07-23T09:18:59;100543.13;;;30.85;28.27
42067;BME280;27734;47.028;28.820;2022-07-23T09:21:45;100545.11;;;30.81;27.89
42067;BME280;27734;47.028;28.820;2022-07-23T09:24:25;100538.34;;;30.90;28.22
42067;BME280;27734;47.028;28.820;2022-07-23T09:27:16;100539.02;;;30.95;28.00
42067;BME280;27734;47.028;28.820;2022-07-23T09:29:56;100541.17;;;31.07;27.83
42067;BME280;27734;47.028;28.820;2022-07-23T09:32:33;100540.27;;;31.07;27.93
42067;BME280;27734;47.028;28.820;2022-07-23T09:35:07;100537.48;;;31.08;28.22
42067;BME280;27734;47.028;28.820;2022-07-23T09:37:41;100538.53;;;31.06;28.01
42067;BME280;27734;47.028;28.820;2022-07-23T09:40:35;100536.05;;;31.01;27.82
42067;BME280;27734;47.028;28.820;2022-07-23T09:43:10;100528.94;;;30.98;27.77
42067;BME280;27734;47.028;28.820;2022-07-23T09:45:41;100530.63;;;31.01;28.09
42067;BME280;27734;47.028;28.820;2022-07-23T09:48:25;100528.64;;;31.05;27.70
42067;BME280;27734;47.028;28.820;2022-07-23T09:51:03;100537.56;;;31.07;27.64
42067;BME280;27734;47.028;28.820;2022-07-23T09:53:42;100531.98;;;31.10;27.41
42067;BME280;27734;47.028;28.820;2022-07-23T09:56:16;100535.41;;;31.13;27.39
42067;BME280;27734;47.028;28.820;2022-07-23T09:59:14;100528.20;;;31.31;27.53
42067;BME280;27734;47.028;28.820;2022-07-23T10:01:57;100527.44;;;31.47;27.48
42067;BME280;27734;47.028;28.820;2022-07-23T10:04:38;100518.94;;;31.54;27.63
42067;BME280;27734;47.028;28.820;2022-07-23T10:07:23;100515.64;;;31.48;27.54
42067;BME280;27734;47.028;28.820;2022-07-23T10:10:17;100509.98;;;31.52;27.60
42067;BME280;27734;47.028;28.820;2022-07-23T10:13:45;100517.41;;;31.66;27.48
42067;BME280;27734;47.028;28.820;2022-07-23T10:16:32;100513.42;;;31.74;27.28
42067;BME280;27734;47.028;28.820;2022-07-23T10:19:10;100511.66;;;31.72;26.89
42067;BME280;27734;47.028;28.820;2022-07-23T10:21:51;100512.96;;;31.65;26.73
42067;BME280;27734;47.028;28.820;2022-07-23T10:24:42;100506.17;;;31.57;26.91
42067;BME280;27734;47.028;28.820;2022-07-23T10:27:37;100505.38;;;31.54;27.04
42067;BME280;27734;47.028;28.820;2022-07-23T10:30:19;100502.67;;;31.54;26.92
42067;BME280;27734;47.028;28.820;2022-07-23T10:33:09;100504.44;;;31.56;26.84
42067;BME280;27734;47.028;28.820;2022-07-23T10:35:50;100504.35;;;31.57;26.65
42067;BME280;27734;47.028;28.820;2022-07-23T10:38:33;100502.71;;;31.53;26.50
42067;BME280;27734;47.028;28.820;2022-07-23T10:41:09;100506.17;;;31.57;26.21
42067;BME280;27734;47.028;28.820;2022-07-23T10:44:07;100502.43;;;31.59;26.31
42067;BME280;27734;47.028;28.820;2022-07-23T10:47:02;100496.84;;;31.62;26.06
42067;BME280;27734;47.028;28.820;2022-07-23T10:50:20;100494.05;;;31.64;25.85
42067;BME280;27734;47.028;28.820;2022-07-23T10:53:15;100500.91;;;31.53;25.62
42067;BME280;27734;47.028;28.820;2022-07-23T10:55:51;100494.37;;;31.58;25.75
42067;BME280;27734;47.028;28.820;2022-07-23T10:58:45;100481.52;;;31.61;25.76
42067;BME280;27734;47.028;28.820;2022-07-23T11:01:37;100481.04;;;31.70;25.73
42067;BME280;27734;47.028;28.820;2022-07-23T11:04:10;100482.56;;;31.76;25.82
42067;BME280;27734;47.028;28.820;2022-07-23T11:07:09;100473.11;;;31.83;25.45
42067;BME280;27734;47.028;28.820;2022-07-23T11:09:49;100482.31;;;31.81;25.29
42067;BME280;27734;47.028;28.820;2022-07-23T11:12:47;100467.77;;;31.82;25.25
42067;BME280;27734;47.028;28.820;2022-07-23T11:15:31;100470.64;;;31.96;25.47
42067;BME280;27734;47.028;28.820;2022-07-23T11:18:03;100463.65;;;32.08;25.41
42067;BME280;27734;47.028;28.820;2022-07-23T11:20:39;100457.75;;;32.17;25.37
42067;BME280;27734;47.028;28.820;2022-07-23T11:23:13;100459.88;;;32.28;25.39
42067;BME280;27734;47.028;28.820;2022-07-23T11:25:50;100457.77;;;32.33;25.38
42067;BME280;27734;47.028;28.820;2022-07-23T11:28:29;100453.23;;;32.34;25.41
42067;BME280;27734;47.028;28.820;2022-07-23T11:31:18;100451.30;;;32.36;25.30
42067;BME280;27734;47.028;28.820;2022-07-23T11:34:29;100446.13;;;32.31;25.30
42067;BME280;27734;47.028;28.820;2022-07-23T11:37:02;100451.55;;;32.31;25.25
42067;BME280;27734;47.028;28.820;2022-07-23T11:39:36;100445.43;;;32.28;24.92
42067;BME280;27734;47.028;28.820;2022-07-23T11:42:11;100451.98;;;32.23;24.80
42067;BME280;27734;47.028;28.820;2022-07-23T11:44:54;100452.41;;;32.16;24.87
42067;BME280;27734;47.028;28.820;2022-07-23T11:47:28;100447.37;;;32.08;24.43
42067;BME280;27734;47.028;28.820;2022-07-23T11:50:06;100441.08;;;32.07;24.70
42067;BME280;27734;47.028;28.820;2022-07-23T11:52:40;100431.73;;;32.13;24.65
42067;BME280;27734;47.028;28.820;2022-07-23T11:55:14;100431.30;;;32.21;24.75
42067;BME280;27734;47.028;28.820;2022-07-23T11:57:47;100428.97;;;32.31;24.77
42067;BME280;27734;47.028;28.820;2022-07-23T12:00:21;100429.92;;;32.30;24.49
42067;BME280;27734;47.028;28.820;2022-07-23T12:02:57;100430.09;;;32.27;24.24
42067;BME280;27734;47.028;28.820;2022-07-23T12:05:41;100432.20;;;32.21;23.98
42067;BME280;27734;47.028;28.820;2022-07-23T12:08:17;100426.77;;;32.21;23.97
42067;BME280;27734;47.028;28.820;2022-07-23T12:10:52;100430.44;;;32.20;23.90
42067;BME280;27734;47.028;28.820;2022-07-23T12:13:27;100428.50;;;32.22;24.07
42067;BME280;27734;47.028;28.820;2022-07-23T12:16:01;100426.43;;;32.28;24.10
42067;BME280;27734;47.028;28.820;2022-07-23T12:18:36;100431.60;;;32.32;24.18
42067;BME280;27734;47.028;28.820;2022-07-23T12:21:16;100428.45;;;32.40;24.05
42067;BME280;27734;47.028;28.820;2022-07-23T12:24:15;100418.02;;;32.48;23.87
42067;BME280;27734;47.028;28.820;2022-07-23T12:27:13;100422.14;;;32.55;23.88
42067;BME280;27734;47.028;28.820;2022-07-23T12:29:50;100411.02;;;32.60;23.78
42067;BME280;27734;47.028;28.820;2022-07-23T12:32:28;100416.54;;;32.58;23.57
42067;BME280;27734;47.028;28.820;2022-07-23T12:35:11;100412.66;;;32.63;23.59
42067;BME280;27734;47.028;28.820;2022-07-23T12:37:59;100416.99;;;32.67;23.56
42067;BME280;27734;47.028;28.820;2022-07-23T12:40:36;100409.63;;;32.69;23.43
42067;BME280;27734;47.028;28.820;2022-07-23T12:43:21;100410.22;;;32.74;23.53
42067;BME280;27734;47.028;28.820;2022-07-23T12:45:56;100409.77;;;32.82;23.46
42067;BME280;27734;47.028;28.820;2022-07-23T12:48:39;100403.20;;;32.86;23.36
42067;BME280;27734;47.028;28.820;2022-07-23T12:51:24;100403.20;;;32.86;22.91
42067;BME280;27734;47.028;28.820;2022-07-23T12:54:05;100401.17;;;32.89;23.14
42067;BME280;27734;47.028;28.820;2022-07-23T12:56:43;100395.73;;;32.89;23.04
42067;BME280;27734;47.028;28.820;2022-07-23T12:59:19;100393.82;;;32.91;22.94
42067;BME280;27734;47.028;28.820;2022-07-23T13:02:00;100391.70;;;32.96;22.66
42067;BME280;27734;47.028;28.820;2022-07-23T13:04:32;100389.66;;;33.00;22.56
42067;BME280;27734;47.028;28.820;2022-07-23T13:07:04;100381.69;;;32.97;22.62
42067;BME280;27734;47.028;28.820;2022-07-23T13:09:45;100375.17;;;32.85;22.25
42067;BME280;27734;47.028;28.820;2022-07-23T13:12:17;100379.98;;;32.80;22.45
42067;BME280;27734;47.028;28.820;2022-07-23T13:14:58;100367.66;;;32.74;22.33
42067;BME280;27734;47.028;28.820;2022-07-23T13:17:36;100370.37;;;32.74;22.49
42067;BME280;27734;47.028;28.820;2022-07-23T13:20:09;100378.43;;;32.76;22.64
42067;BME280;27734;47.028;28.820;2022-07-23T13:22:42;100370.09;;;32.79;22.42
42067;BME280;27734;47.028;28.820;2022-07-23T13:27:55;100371.64;;;32.83;22.60
42067;BME280;27734;47.028;28.820;2022-07-23T13:30:40;100374.18;;;32.86;22.57
42067;BME280;27734;47.028;28.820;2022-07-23T13:33:15;100365.94;;;32.88;22.33
42067;BME280;27734;47.028;28.820;2022-07-23T13:36:00;100365.07;;;32.87;22.42
42067;BME280;27734;47.028;28.820;2022-07-23T13:38:32;100364.02;;;32.90;22.53
42067;BME280;27734;47.028;28.820;2022-07-23T13:41:13;100362.17;;;32.90;22.34
42067;BME280;27734;47.028;28.820;2022-07-23T13:43:47;100365.84;;;32.89;22.52
42067;BME280;27734;47.028;28.820;2022-07-23T13:46:21;100366.12;;;32.85;22.27
42067;BME280;27734;47.028;28.820;2022-07-23T13:49:08;100363.40;;;32.85;22.33
42067;BME280;27734;47.028;28.820;2022-07-23T13:51:39;100356.23;;;32.84;22.56
42067;BME280;27734;47.028;28.820;2022-07-23T13:54:17;100357.10;;;32.84;22.29
42067;BME280;27734;47.028;28.820;2022-07-23T13:56:51;100365.44;;;32.81;22.33
42067;BME280;27734;47.028;28.820;2022-07-23T13:59:23;100365.34;;;32.83;22.29
42067;BME280;27734;47.028;28.820;2022-07-23T14:02:04;100369.83;;;32.84;22.31